Time;durP1;ratioP1;P1;durP2;ratioP2;P2;SDS_P1;SDS_P2;PMS_P1;PMS_P2;Temp;Humidity;BMP_temperature;BMP_pressure;BME280_temperature;BME280_humidity;BME280_pressure;Samples;Min_cycle;Max_cycle;Signal;HPM_P1;HPM_P2
2021/03/25 00:01:29;;;;;;;43.45;21.20;;;7.10;99.90;;;;;;4991934;28;20054;-87
2021/03/25 00:03:57;;;;;;;40.83;20.45;;;7.00;99.90;;;;;;5008904;28;20048;-88
2021/03/25 00:06:25;;;;;;;41.65;18.88;;;7.00;99.90;;;;;;5009318;28;20194;-88
2021/03/25 00:08:52;;;;;;;41.05;17.73;;;7.00;99.90;;;;;;5007306;28;20069;-87
2021/03/25 00:11:18;;;;;;;38.92;19.63;;;7.00;99.90;;;;;;4992036;28;20042;-89
2021/03/25 00:13:44;;;;;;;45.88;18.48;;;7.00;99.90;;;;;;5008311;28;20073;-86
2021/03/25 00:16:11;;;;;;;41.47;19.25;;;7.10;99.90;;;;;;4991649;28;20045;-88
2021/03/25 00:18:38;;;;;;;38.60;19.25;;;7.00;99.90;;;;;;5009193;28;20049;-87
2021/03/25 00:21:06;;;;;;;44.83;21.38;;;7.10;99.90;;;;;;5008674;28;20208;-88
2021/03/25 00:23:32;;;;;;;33.63;18.13;;;7.00;99.90;;;;;;4991170;28;20042;-87
2021/03/25 00:25:58;;;;;;;44.63;18.10;;;7.00;99.90;;;;;;4991250;28;20111;-88
2021/03/25 00:28:24;;;;;;;42.20;19.20;;;7.00;99.90;;;;;;4991855;28;20046;-87
2021/03/25 00:30:50;;;;;;;35.15;18.77;;;7.00;99.90;;;;;;5008251;28;20034;-89
2021/03/25 00:33:18;;;;;;;40.05;18.05;;;7.00;99.90;;;;;;4991510;28;20053;-88
2021/03/25 00:35:45;;;;;;;43.67;19.33;;;7.00;99.90;;;;;;4991138;28;20383;-86
2021/03/25 00:38:12;;;;;;;40.63;18.55;;;7.00;99.90;;;;;;5009361;28;20081;-89
2021/03/25 00:40:39;;;;;;;38.30;18.42;;;7.00;99.90;;;;;;5007949;28;20069;-89
2021/03/25 00:43:07;;;;;;;41.67;19.23;;;7.00;99.90;;;;;;5008836;28;20489;-89
2021/03/25 00:45:37;;;;;;;38.78;19.85;;;6.90;99.90;;;;;;5010273;28;20049;-89
2021/03/25 00:48:04;;;;;;;33.03;19.10;;;6.80;99.90;;;;;;5012101;28;20046;-89
2021/03/25 00:50:36;;;;;;;35.92;18.25;;;6.80;99.90;;;;;;5012287;28;20052;-88
2021/03/25 00:53:03;;;;;;;33.78;17.90;;;6.70;99.90;;;;;;4994296;28;20049;-88
2021/03/25 00:55:29;;;;;;;37.83;19.15;;;6.70;99.90;;;;;;4994722;28;20126;-87
2021/03/25 00:57:55;;;;;;;31.50;18.20;;;6.60;99.90;;;;;;4994196;28;20073;-88
2021/03/25 01:00:24;;;;;;;38.67;18.58;;;6.60;99.90;;;;;;4978693;28;20124;-89
2021/03/25 01:02:50;;;;;;;38.37;17.20;;;6.50;99.90;;;;;;5011227;28;20899;-88
2021/03/25 01:05:17;;;;;;;45.50;20.88;;;6.50;99.90;;;;;;5011863;28;20072;-86
2021/03/25 01:07:43;;;;;;;41.08;19.83;;;6.50;99.90;;;;;;4994905;28;20045;-88
2021/03/25 01:10:40;;;;;;;38.85;18.20;;;6.30;99.90;;;;;;4993765;28;20212;-86
2021/03/25 01:13:13;;;;;;;40.65;18.77;;;6.30;99.90;;;;;;5009642;28;20138;-88
2021/03/25 01:15:39;;;;;;;34.42;19.75;;;6.20;99.90;;;;;;5011510;28;20036;-88
2021/03/25 01:18:07;;;;;;;43.22;18.48;;;6.10;99.90;;;;;;4993927;28;20145;-87
2021/03/25 01:20:38;;;;;;;43.13;19.45;;;6.00;99.90;;;;;;4994325;28;20045;-86
2021/03/25 01:23:05;;;;;;;39.83;20.00;;;6.00;99.90;;;;;;5011152;28;20056;-86
2021/03/25 01:25:31;;;;;;;34.28;19.00;;;6.00;99.90;;;;;;4993897;28;20445;-87
2021/03/25 01:27:59;;;;;;;36.88;19.42;;;5.90;99.90;;;;;;5009670;28;20389;-87
2021/03/25 01:30:27;;;;;;;34.35;19.10;;;5.80;99.90;;;;;;4978186;28;20053;-86
2021/03/25 01:32:54;;;;;;;42.97;19.70;;;5.70;99.90;;;;;;4993541;28;20049;-87
2021/03/25 01:35:20;;;;;;;33.13;19.17;;;5.60;99.90;;;;;;4993843;28;20045;-87
2021/03/25 01:37:48;;;;;;;41.20;19.95;;;5.70;99.90;;;;;;5010217;28;20034;-87
2021/03/25 01:40:24;;;;;;;40.50;19.85;;;5.60;99.90;;;;;;4993603;28;20049;-86
2021/03/25 01:42:50;;;;;;;43.38;19.52;;;5.50;99.90;;;;;;4993337;28;20490;-85
2021/03/25 01:45:35;;;;;;;37.90;19.02;;;5.60;99.90;;;;;;5011460;28;20042;-87
2021/03/25 01:48:01;;;;;;;41.42;18.33;;;5.60;99.90;;;;;;5009580;28;20049;-88
2021/03/25 01:50:26;;;;;;;45.22;19.48;;;5.50;99.90;;;;;;5010491;28;20042;-88
2021/03/25 01:53:10;;;;;;;44.90;20.33;;;5.50;99.90;;;;;;4993537;28;20049;-85
2021/03/25 01:55:51;;;;;;;41.92;20.65;;;5.50;99.90;;;;;;5011288;28;20561;-87
2021/03/25 01:58:40;;;;;;;35.13;18.80;;;5.40;99.90;;;;;;5010329;28;20124;-86
2021/03/25 02:01:21;;;;;;;34.13;19.45;;;5.30;99.90;;;;;;5009807;28;20050;-86
2021/03/25 02:03:52;;;;;;;43.03;19.95;;;5.40;99.90;;;;;;5010705;28;20088;-87
2021/03/25 02:06:36;;;;;;;42.60;20.92;;;5.40;99.90;;;;;;5010965;28;20125;-87
2021/03/25 02:09:07;;;;;;;42.90;21.17;;;5.30;99.90;;;;;;4992924;28;20049;-86
2021/03/25 02:12:12;;;;;;;43.20;22.83;;;5.20;99.90;;;;;;5010818;28;20033;-89
2021/03/25 02:14:51;;;;;;;43.45;20.88;;;5.10;99.90;;;;;;4989295;28;20073;-89
2021/03/25 02:17:41;;;;;;;47.78;20.75;;;5.00;99.90;;;;;;5009010;28;20080;-88
2021/03/25 02:20:34;;;;;;;51.75;23.05;;;4.90;99.90;;;;;;4992546;28;20552;-89
2021/03/25 02:23:38;;;;;;;46.13;21.77;;;4.80;99.90;;;;;;5009174;28;20074;-88
2021/03/25 02:26:07;;;;;;;48.13;24.13;;;4.70;99.90;;;;;;4971572;28;20513;-87
2021/03/25 02:29:01;;;;;;;41.92;21.95;;;4.70;99.90;;;;;;5010846;28;20084;-87
2021/03/25 02:31:32;;;;;;;54.22;23.83;;;4.70;99.90;;;;;;5009648;28;20057;-90
2021/03/25 02:34:07;;;;;;;51.03;26.92;;;4.70;99.90;;;;;;5009401;28;20068;-88
2021/03/25 02:36:40;;;;;;;45.83;22.77;;;4.60;99.90;;;;;;4992991;28;20489;-87
2021/03/25 02:39:11;;;;;;;43.75;23.35;;;4.60;99.90;;;;;;5008715;28;20042;-87
2021/03/25 02:41:42;;;;;;;50.00;24.02;;;4.40;99.90;;;;;;5010516;28;20041;-87
2021/03/25 02:44:37;;;;;;;38.20;23.38;;;4.40;99.90;;;;;;4991922;28;20034;-88
2021/03/25 02:47:08;;;;;;;43.75;22.27;;;4.30;99.90;;;;;;5007434;28;20053;-88
2021/03/25 02:49:51;;;;;;;41.97;23.33;;;4.30;99.90;;;;;;5010053;28;20670;-88
2021/03/25 02:52:40;;;;;;;39.50;21.73;;;4.30;99.90;;;;;;5009626;28;20046;-87
2021/03/25 02:55:10;;;;;;;42.35;22.08;;;4.20;99.90;;;;;;5007088;28;20096;-88
2021/03/25 02:57:59;;;;;;;52.58;24.52;;;4.20;99.90;;;;;;4990722;28;20054;-87
2021/03/25 03:00:40;;;;;;;55.05;23.05;;;4.10;99.90;;;;;;4990498;28;20504;-87
2021/03/25 03:03:16;;;;;;;49.22;23.92;;;4.00;99.90;;;;;;4988589;28;20042;-87
2021/03/25 03:05:43;;;;;;;47.88;24.20;;;4.00;99.90;;;;;;4973543;28;20049;-87
2021/03/25 03:08:36;;;;;;;55.05;24.65;;;3.80;99.90;;;;;;4972125;28;20120;-87
2021/03/25 03:11:07;;;;;;;47.45;23.00;;;3.80;99.90;;;;;;4970070;28;20046;-87
2021/03/25 03:13:40;;;;;;;37.80;20.88;;;3.70;99.90;;;;;;4953798;28;20046;-87
2021/03/25 03:16:13;;;;;;;42.25;22.38;;;3.70;99.90;;;;;;4970589;28;20039;-87
2021/03/25 03:19:02;;;;;;;53.45;26.02;;;3.70;99.90;;;;;;4980582;28;20049;-88
2021/03/25 03:21:36;;;;;;;57.28;26.60;;;3.60;99.90;;;;;;5009934;28;21005;-87
2021/03/25 03:24:02;;;;;;;57.03;26.90;;;3.60;99.90;;;;;;5009068;28;20042;-88
2021/03/25 03:26:35;;;;;;;53.38;26.70;;;3.50;99.90;;;;;;4991551;28;20050;-86
2021/03/25 03:29:05;;;;;;;55.38;25.67;;;3.50;99.90;;;;;;4953127;28;20511;-85
2021/03/25 03:31:42;;;;;;;53.28;25.55;;;3.50;99.90;;;;;;4970420;28;20042;-88
2021/03/25 03:34:15;;;;;;;48.15;23.63;;;3.40;99.90;;;;;;4968564;28;20082;-86
2021/03/25 03:36:44;;;;;;;51.83;22.55;;;3.30;99.90;;;;;;4970474;28;20089;-87
2021/03/25 03:39:16;;;;;;;46.15;22.83;;;3.30;99.90;;;;;;4988450;28;20077;-88
2021/03/25 03:41:50;;;;;;;50.15;23.40;;;3.20;99.90;;;;;;4989978;28;20057;-87
2021/03/25 03:44:22;;;;;;;47.17;23.33;;;3.20;99.90;;;;;;4989288;28;20046;-86
2021/03/25 03:46:49;;;;;;;57.33;26.63;;;3.10;99.90;;;;;;4990032;28;20046;-86
2021/03/25 03:49:26;;;;;;;62.88;29.30;;;3.10;99.90;;;;;;4988497;28;20074;-88
2021/03/25 03:52:01;;;;;;;63.67;27.95;;;3.10;99.90;;;;;;4980845;28;20049;-85
2021/03/25 03:54:27;;;;;;;51.97;25.45;;;3.10;99.90;;;;;;4995656;28;20056;-86
2021/03/25 03:57:05;;;;;;;56.35;25.00;;;3.10;99.90;;;;;;5009385;28;20050;-87
2021/03/25 03:59:57;;;;;;;52.33;25.30;;;3.00;99.90;;;;;;5007947;28;20124;-87
2021/03/25 04:02:47;;;;;;;63.80;29.05;;;3.10;99.90;;;;;;5005602;28;20133;-87
2021/03/25 04:05:26;;;;;;;57.28;25.80;;;3.00;99.90;;;;;;4990784;28;20429;-86
2021/03/25 04:08:08;;;;;;;62.47;28.42;;;3.00;99.90;;;;;;5008991;28;20096;-86
2021/03/25 04:10:41;;;;;;;48.78;25.05;;;3.00;99.90;;;;;;4990489;28;20046;-89
2021/03/25 04:13:15;;;;;;;56.80;26.90;;;3.00;99.90;;;;;;5006710;28;20065;-89
2021/03/25 04:15:47;;;;;;;57.42;27.65;;;2.90;99.90;;;;;;5005643;28;20089;-89
2021/03/25 04:18:16;;;;;;;68.80;30.13;;;2.90;99.90;;;;;;5008047;28;20037;-87
2021/03/25 04:20:47;;;;;;;72.22;31.25;;;2.90;99.90;;;;;;4991500;28;20093;-87
2021/03/25 04:23:16;;;;;;;56.47;28.52;;;3.00;99.90;;;;;;5004066;28;20054;-87
2021/03/25 04:25:49;;;;;;;44.70;20.90;;;2.90;99.90;;;;;;5012672;28;20073;-88
2021/03/25 04:28:37;;;;;;;59.83;27.27;;;3.00;99.90;;;;;;5012206;28;20037;-88
2021/03/25 04:31:05;;;;;;;55.00;27.58;;;3.10;99.90;;;;;;5011494;28;20052;-86
2021/03/25 04:33:31;;;;;;;66.32;30.25;;;3.20;99.90;;;;;;4995365;28;20494;-88
2021/03/25 04:35:59;;;;;;;73.60;31.80;;;3.30;99.90;;;;;;5011465;28;20060;-88
2021/03/25 04:38:33;;;;;;;79.30;34.92;;;3.40;99.90;;;;;;5010916;28;20037;-88
2021/03/25 04:41:00;;;;;;;69.63;33.50;;;3.40;99.90;;;;;;5012934;28;20046;-88
2021/03/25 04:43:27;;;;;;;64.55;31.00;;;3.40;99.90;;;;;;5012041;28;20115;-88
2021/03/25 04:46:23;;;;;;;59.65;31.33;;;3.40;99.90;;;;;;5012183;28;20050;-87
2021/03/25 04:48:50;;;;;;;75.22;33.45;;;3.50;99.90;;;;;;5012733;28;20044;-88
2021/03/25 04:51:19;;;;;;;78.70;32.70;;;3.50;99.90;;;;;;4994304;28;20474;-89
2021/03/25 04:53:46;;;;;;;76.63;34.33;;;3.50;99.90;;;;;;4994780;28;20156;-88
2021/03/25 04:56:15;;;;;;;78.15;32.88;;;3.50;99.90;;;;;;4994344;28;20053;-88
2021/03/25 04:58:47;;;;;;;73.63;33.25;;;3.50;99.90;;;;;;4994415;28;20053;-88
2021/03/25 05:01:24;;;;;;;80.70;33.67;;;3.60;99.90;;;;;;5011920;28;20046;-90
2021/03/25 05:03:56;;;;;;;80.00;36.35;;;3.60;99.90;;;;;;5012516;28;20069;-89
2021/03/25 05:06:27;;;;;;;82.85;36.33;;;3.50;99.90;;;;;;4994408;28;20119;-89
2021/03/25 05:08:54;;;;;;;92.75;37.50;;;3.70;99.90;;;;;;5012583;28;20046;-88
2021/03/25 05:11:23;;;;;;;88.05;36.17;;;3.70;99.90;;;;;;5011103;28;20053;-88
2021/03/25 05:13:49;;;;;;;83.18;37.30;;;3.80;99.90;;;;;;5011821;28;20041;-88
2021/03/25 05:16:38;;;;;;;87.53;36.67;;;3.80;99.90;;;;;;5010160;28;20046;-88
2021/03/25 05:19:19;;;;;;;84.13;37.25;;;3.90;99.90;;;;;;5010772;28;20200;-87
2021/03/25 05:22:08;;;;;;;89.57;36.22;;;3.90;99.90;;;;;;5011800;28;20192;-88
2021/03/25 05:24:46;;;;;;;83.32;37.33;;;3.90;99.90;;;;;;5011625;28;20474;-88
2021/03/25 05:27:15;;;;;;;86.70;38.95;;;4.00;99.90;;;;;;5011066;28;20042;-87
2021/03/25 05:29:43;;;;;;;89.82;38.22;;;4.00;99.90;;;;;;5011374;28;20077;-88
2021/03/25 05:32:11;;;;;;;84.43;37.92;;;4.00;99.90;;;;;;5010351;28;20046;-87
2021/03/25 05:34:39;;;;;;;86.75;37.03;;;4.00;99.90;;;;;;4994636;28;20394;-90
2021/03/25 05:37:06;;;;;;;88.43;38.03;;;3.90;99.90;;;;;;5011251;28;20516;-89
2021/03/25 05:39:33;;;;;;;77.85;37.38;;;3.90;99.90;;;;;;4993497;28;20080;-89
2021/03/25 05:42:21;;;;;;;92.72;36.60;;;3.90;99.90;;;;;;5010476;28;20413;-88
2021/03/25 05:45:29;;;;;;;81.95;37.00;;;3.90;99.90;;;;;;5010282;28;20049;-88
2021/03/25 05:48:03;;;;;;;94.03;37.78;;;3.90;99.90;;;;;;4994929;28;20054;-89
2021/03/25 05:50:59;;;;;;;79.65;37.05;;;4.00;99.90;;;;;;5010603;28;20065;-88
2021/03/25 05:53:41;;;;;;;97.07;38.95;;;4.00;99.90;;;;;;5008516;28;20046;-89
2021/03/25 05:56:31;;;;;;;83.45;39.38;;;4.00;99.90;;;;;;5010626;28;20042;-89
2021/03/25 05:59:03;;;;;;;96.53;40.60;;;4.00;99.90;;;;;;5011393;28;20038;-89
2021/03/25 06:02:05;;;;;;;90.63;38.95;;;4.00;99.90;;;;;;5010750;28;20060;-89
2021/03/25 06:04:36;;;;;;;86.03;37.70;;;4.10;99.90;;;;;;5009882;28;20591;-90
2021/03/25 06:07:17;;;;;;;101.95;40.75;;;4.10;99.90;;;;;;5011427;28;20129;-91
2021/03/25 06:10:01;;;;;;;102.32;41.95;;;4.10;99.90;;;;;;5009846;28;20041;-89
2021/03/25 06:12:42;;;;;;;103.07;40.85;;;4.10;99.90;;;;;;5009221;28;20042;-91
2021/03/25 06:15:14;;;;;;;81.85;37.00;;;4.10;99.90;;;;;;4993816;28;20048;-89
2021/03/25 06:17:50;;;;;;;96.03;41.60;;;4.10;99.90;;;;;;5009214;28;20050;-90
2021/03/25 06:21:02;;;;;;;96.50;38.75;;;4.10;99.90;;;;;;5004479;28;20041;-87
2021/03/25 06:23:37;;;;;;;73.70;34.45;;;4.20;99.90;;;;;;4961282;28;20823;-89
2021/03/25 06:26:15;;;;;;;73.22;34.67;;;4.20;99.90;;;;;;4993737;28;20409;-90
2021/03/25 06:29:14;;;;;;;89.22;38.83;;;4.30;99.90;;;;;;4993549;28;20514;-89
2021/03/25 06:32:08;;;;;;;92.65;35.63;;;4.30;99.90;;;;;;5010212;28;20100;-91
2021/03/25 06:34:44;;;;;;;74.95;33.30;;;4.40;99.90;;;;;;4986389;28;20926;-91
2021/03/25 06:37:24;;;;;;;89.60;38.53;;;4.50;99.90;;;;;;5008113;28;20046;-91
2021/03/25 06:40:00;;;;;;;84.38;36.83;;;4.50;99.90;;;;;;5008269;28;20574;-90
2021/03/25 06:42:38;;;;;;;98.43;42.40;;;4.60;99.90;;;;;;5009454;28;20033;-89
2021/03/25 06:45:15;;;;;;;83.72;38.13;;;4.70;99.90;;;;;;5010632;28;20065;-88
2021/03/25 06:48:02;;;;;;;86.70;39.38;;;4.80;99.90;;;;;;5009913;28;20046;-88
2021/03/25 06:50:39;;;;;;;69.07;33.78;;;4.90;99.90;;;;;;5008489;28;20127;-88
2021/03/25 06:53:27;;;;;;;78.65;36.03;;;5.00;99.90;;;;;;4992779;28;20049;-89
2021/03/25 06:56:03;;;;;;;74.07;35.67;;;5.10;99.90;;;;;;5009084;28;20058;-89
2021/03/25 06:58:51;;;;;;;80.03;37.78;;;5.20;99.90;;;;;;4992354;28;20084;-90
2021/03/25 07:01:39;;;;;;;89.45;39.22;;;5.30;99.90;;;;;;4991769;28;20068;-87
2021/03/25 07:04:13;;;;;;;94.13;40.90;;;5.40;99.90;;;;;;5009731;28;20049;-91
2021/03/25 07:06:40;;;;;;;84.38;38.40;;;5.50;99.90;;;;;;4992671;28;20046;-91
2021/03/25 07:09:06;;;;;;;82.22;37.15;;;5.50;99.90;;;;;;4976541;28;20045;-89
2021/03/25 07:11:32;;;;;;;84.50;38.40;;;5.50;99.90;;;;;;4991887;28;20038;-92
2021/03/25 07:14:08;;;;;;;84.00;37.88;;;5.70;99.90;;;;;;5010827;28;20104;-91
2021/03/25 07:16:43;;;;;;;103.63;43.60;;;5.60;99.90;;;;;;5009491;28;20130;-90
2021/03/25 07:19:20;;;;;;;79.50;39.45;;;5.70;99.90;;;;;;4992603;28;20049;-90
2021/03/25 07:21:48;;;;;;;97.00;42.03;;;5.80;99.90;;;;;;4992288;28;20062;-90
2021/03/25 07:24:23;;;;;;;95.32;40.95;;;5.80;99.90;;;;;;5010211;28;20057;-90
2021/03/25 07:27:00;;;;;;;95.28;41.83;;;5.80;99.90;;;;;;5009776;28;20490;-89
2021/03/25 07:29:31;;;;;;;91.13;40.85;;;5.90;99.90;;;;;;5008146;28;20121;-90
2021/03/25 07:31:58;;;;;;;101.78;41.10;;;5.90;99.90;;;;;;4992288;28;20046;-88
2021/03/25 07:34:47;;;;;;;106.75;43.78;;;6.00;99.90;;;;;;5007181;28;20046;-87
2021/03/25 07:37:16;;;;;;;90.53;42.63;;;6.10;99.90;;;;;;5009977;28;20049;-89
2021/03/25 07:39:49;;;;;;;95.95;42.75;;;6.20;99.90;;;;;;5009038;28;20042;-90
2021/03/25 07:42:30;;;;;;;96.95;42.90;;;6.20;99.90;;;;;;5009027;28;20049;-90
2021/03/25 07:45:23;;;;;;;100.25;45.42;;;6.30;99.90;;;;;;4992189;28;20103;-91
2021/03/25 07:47:51;;;;;;;91.55;43.72;;;6.30;99.90;;;;;;4990990;28;20157;-88
2021/03/25 07:50:24;;;;;;;100.65;44.38;;;6.40;99.90;;;;;;5009311;28;20076;-89
2021/03/25 07:52:51;;;;;;;99.75;44.45;;;6.50;99.90;;;;;;5009581;28;20076;-91
2021/03/25 07:55:19;;;;;;;99.47;44.88;;;6.60;99.90;;;;;;4976132;28;20144;-88
2021/03/25 07:57:49;;;;;;;101.57;45.30;;;6.70;99.90;;;;;;5011110;28;20040;-89
2021/03/25 08:00:33;;;;;;;104.88;44.13;;;6.80;99.90;;;;;;5011166;28;20096;-87
2021/03/25 08:03:14;;;;;;;109.15;45.90;;;6.80;99.90;;;;;;4991377;28;20054;-86
2021/03/25 08:05:43;;;;;;;105.15;44.85;;;6.80;99.90;;;;;;4994190;28;20119;-87
2021/03/25 08:08:27;;;;;;;99.18;44.92;;;7.00;99.90;;;;;;4995795;28;20058;-86
2021/03/25 08:11:10;;;;;;;104.07;44.67;;;7.10;99.90;;;;;;5011241;28;20045;-88
2021/03/25 08:13:44;;;;;;;103.28;44.75;;;7.20;99.90;;;;;;5012438;28;20148;-86
2021/03/25 08:16:12;;;;;;;101.57;45.47;;;7.30;99.90;;;;;;5012955;28;20048;-87
2021/03/25 08:18:54;;;;;;;107.07;47.17;;;7.40;99.90;;;;;;5011105;28;20522;-87
2021/03/25 08:21:44;;;;;;;99.57;45.92;;;7.50;99.90;;;;;;5012779;28;20602;-87
2021/03/25 08:24:46;;;;;;;91.45;44.10;;;7.60;99.90;;;;;;5012395;28;20109;-89
2021/03/25 08:27:36;;;;;;;99.25;43.60;;;7.60;99.90;;;;;;4992717;28;20046;-90
2021/03/25 08:30:25;;;;;;;98.28;45.97;;;7.80;99.90;;;;;;5005779;28;20121;-89
2021/03/25 08:33:12;;;;;;;102.18;44.90;;;7.90;99.90;;;;;;4990704;28;20098;-88
2021/03/25 08:35:47;;;;;;;108.32;45.97;;;8.00;99.90;;;;;;5006733;28;20044;-88
2021/03/25 08:38:50;;;;;;;93.82;42.88;;;8.10;99.90;;;;;;5010780;28;20042;-91
2021/03/25 08:41:52;;;;;;;97.22;44.70;;;8.30;99.90;;;;;;5006914;28;20061;-89
2021/03/25 08:44:27;;;;;;;93.90;42.05;;;8.40;99.90;;;;;;4995772;28;20085;-88
2021/03/25 08:47:03;;;;;;;91.50;44.83;;;8.50;99.90;;;;;;5011869;28;20426;-88
2021/03/25 08:49:59;;;;;;;96.78;41.17;;;8.60;99.90;;;;;;5011534;28;20037;-87
2021/03/25 08:52:28;;;;;;;89.50;40.90;;;8.70;99.90;;;;;;5010113;28;20037;-89
2021/03/25 08:55:02;;;;;;;80.85;39.70;;;8.70;99.90;;;;;;5012407;28;20046;-91
2021/03/25 08:57:34;;;;;;;85.82;39.40;;;8.90;99.90;;;;;;5006432;28;20780;-87
2021/03/25 09:00:10;;;;;;;75.97;39.55;;;9.00;99.90;;;;;;4977038;28;20061;-87
2021/03/25 09:02:45;;;;;;;80.68;39.13;;;9.10;99.90;;;;;;5006467;28;20038;-88
2021/03/25 09:05:21;;;;;;;107.00;39.20;;;9.20;99.90;;;;;;4951558;28;20516;-88
2021/03/25 09:07:48;;;;;;;77.70;37.17;;;9.30;99.90;;;;;;4989056;28;20299;-88
2021/03/25 09:10:40;;;;;;;111.25;40.80;;;9.40;99.90;;;;;;4977295;28;20038;-88
2021/03/25 09:13:30;;;;;;;75.25;35.85;;;9.50;99.90;;;;;;5002012;28;20057;-88
2021/03/25 09:15:58;;;;;;;69.75;34.25;;;9.60;99.90;;;;;;4978526;28;20055;-89
2021/03/25 09:18:29;;;;;;;74.40;36.17;;;9.60;99.90;;;;;;4991866;28;20553;-87
2021/03/25 09:21:08;;;;;;;72.90;36.00;;;9.80;99.90;;;;;;4974357;28;20508;-87
2021/03/25 09:23:34;;;;;;;76.95;35.45;;;9.80;99.90;;;;;;4991503;28;20046;-88
2021/03/25 09:26:11;;;;;;;66.25;34.33;;;9.90;99.90;;;;;;4998631;28;20073;-87
2021/03/25 09:29:06;;;;;;;72.07;35.10;;;10.00;99.90;;;;;;4992729;28;20042;-90
2021/03/25 09:31:53;;;;;;;78.15;33.53;;;10.10;99.90;;;;;;5009134;28;20076;-87
2021/03/25 09:34:22;;;;;;;66.65;31.40;;;10.20;99.90;;;;;;4994055;28;20042;-89
2021/03/25 09:37:01;;;;;;;63.58;31.50;;;10.30;99.90;;;;;;5009555;28;20061;-88
2021/03/25 09:39:37;;;;;;;67.45;34.40;;;10.40;99.90;;;;;;5010537;28;20042;-88
2021/03/25 09:42:27;;;;;;;64.65;32.67;;;10.40;99.90;;;;;;4981837;28;20046;-91
2021/03/25 09:44:53;;;;;;;64.75;33.20;;;10.50;99.90;;;;;;4959400;28;20058;-90
2021/03/25 09:47:35;;;;;;;72.05;32.35;;;10.60;99.90;;;;;;4954462;28;20423;-91
2021/03/25 09:50:01;;;;;;;70.00;33.17;;;10.70;99.90;;;;;;4971463;28;20065;-91
2021/03/25 09:53:25;;;;;;;67.80;31.73;;;10.80;99.90;;;;;;4980653;28;20490;-91
2021/03/25 09:56:21;;;;;;;63.58;30.30;;;10.90;99.90;;;;;;4952538;28;20062;-88
2021/03/25 09:58:48;;;;;;;53.03;28.77;;;11.10;99.90;;;;;;4959891;28;20063;-91
2021/03/25 10:01:54;;;;;;;58.20;29.13;;;11.20;99.90;;;;;;4944675;28;20125;-90
2021/03/25 10:04:28;;;;;;;59.53;30.02;;;11.30;99.90;;;;;;4974060;28;20046;-88
2021/03/25 10:06:59;;;;;;;58.42;29.55;;;11.40;99.90;;;;;;4990781;28;20606;-90
2021/03/25 10:09:47;;;;;;;62.45;30.40;;;11.50;99.90;;;;;;4992286;28;20039;-90
2021/03/25 10:12:13;;;;;;;57.70;30.83;;;11.60;99.90;;;;;;4989938;28;20050;-90
2021/03/25 10:14:48;;;;;;;65.22;31.50;;;11.60;99.90;;;;;;4972535;28;20050;-93
2021/03/25 10:17:48;;;;;;;66.63;31.10;;;11.60;99.90;;;;;;4973572;28;20080;-92
2021/03/25 10:20:52;;;;;;;65.82;29.38;;;11.70;99.90;;;;;;4921701;28;20081;-91
2021/03/25 10:23:20;;;;;;;65.53;28.77;;;11.70;99.90;;;;;;4991197;28;20089;-91
2021/03/25 10:25:51;;;;;;;57.08;28.40;;;11.80;99.90;;;;;;4970252;28;20061;-92
2021/03/25 10:28:24;;;;;;;66.20;29.30;;;12.00;99.90;;;;;;4971818;28;20039;-90
2021/03/25 10:31:00;;;;;;;48.85;26.27;;;12.30;99.90;;;;;;4971376;28;20050;-92
2021/03/25 10:33:28;;;;;;;45.45;24.75;;;12.50;99.90;;;;;;4954861;28;20050;-91
2021/03/25 10:35:59;;;;;;;49.17;25.50;;;12.70;99.90;;;;;;5006275;28;20107;-91
2021/03/25 10:38:30;;;;;;;45.15;24.25;;;12.90;99.90;;;;;;5009482;28;20384;-88
2021/03/25 10:41:00;;;;;;;45.42;23.25;;;13.10;99.90;;;;;;5009971;28;20053;-91
2021/03/25 10:43:33;;;;;;;50.67;25.27;;;13.30;99.90;;;;;;5010603;28;20056;-91
2021/03/25 10:46:05;;;;;;;41.17;21.83;;;13.40;99.90;;;;;;4991871;28;20598;-90
2021/03/25 10:48:35;;;;;;;45.22;22.25;;;13.40;99.90;;;;;;4992032;28;20116;-90
2021/03/25 10:51:23;;;;;;;39.35;20.63;;;13.40;99.90;;;;;;4994817;28;20046;-89
2021/03/25 10:53:49;;;;;;;39.92;19.80;;;13.50;99.90;;;;;;5009516;28;20108;-89
2021/03/25 10:56:37;;;;;;;40.35;20.25;;;13.50;99.90;;;;;;5009096;28;20057;-92
2021/03/25 10:59:14;;;;;;;39.20;20.25;;;13.50;99.90;;;;;;4989902;28;20057;-90
2021/03/25 11:01:55;;;;;;;37.35;17.70;;;13.60;99.90;;;;;;4985652;28;20120;-87
2021/03/25 11:04:34;;;;;;;37.53;19.38;;;13.60;99.90;;;;;;5005712;28;20508;-89
2021/03/25 11:07:17;;;;;;;43.47;18.92;;;13.60;99.90;;;;;;5009397;28;20041;-90
2021/03/25 11:10:01;;;;;;;33.10;17.65;;;13.60;99.90;;;;;;5008365;28;20402;-89
2021/03/25 11:12:33;;;;;;;29.63;18.17;;;13.70;99.90;;;;;;4974187;28;20038;-90
2021/03/25 11:15:07;;;;;;;38.13;19.60;;;13.80;99.90;;;;;;4989697;28;20056;-90
2021/03/25 11:17:39;;;;;;;36.00;18.00;;;13.90;99.90;;;;;;4990225;28;20074;-88
2021/03/25 11:20:13;;;;;;;43.65;19.63;;;14.00;99.90;;;;;;4989717;28;20050;-88
2021/03/25 11:22:39;;;;;;;42.50;19.77;;;14.00;99.90;;;;;;4988654;28;20044;-90
2021/03/25 11:25:11;;;;;;;33.75;17.75;;;14.10;99.90;;;;;;4956159;28;20054;-91
2021/03/25 11:27:38;;;;;;;34.92;17.00;;;14.10;99.90;;;;;;4998719;28;20034;-90
2021/03/25 11:30:25;;;;;;;32.75;17.33;;;14.00;99.90;;;;;;4991830;28;20061;-91
2021/03/25 11:32:51;;;;;;;38.38;17.40;;;14.00;99.90;;;;;;5008900;28;20084;-90
2021/03/25 11:35:34;;;;;;;35.05;17.35;;;14.20;99.90;;;;;;4991819;28;20054;-88
2021/03/25 11:38:25;;;;;;;31.88;18.42;;;14.30;99.90;;;;;;5007775;28;20057;-91
2021/03/25 11:41:00;;;;;;;40.15;19.92;;;14.40;99.90;;;;;;4993371;28;20035;-91
2021/03/25 11:43:48;;;;;;;42.22;19.63;;;14.50;99.90;;;;;;4990026;28;20038;-90
2021/03/25 11:46:35;;;;;;;33.97;16.75;;;14.60;99.90;;;;;;4989647;28;20053;-89
2021/03/25 11:49:13;;;;;;;30.38;16.63;;;14.70;99.90;;;;;;4987586;28;20483;-88
2021/03/25 11:51:43;;;;;;;35.10;17.38;;;14.80;99.90;;;;;;4971884;28;20046;-87
2021/03/25 11:54:21;;;;;;;;;;;14.90;99.90;;;;;;4991236;28;20042;-87
2021/03/25 11:56:51;;;;;;;32.28;16.90;;;15.00;99.90;;;;;;4985189;28;20373;-87
2021/03/25 11:59:17;;;;;;;28.05;16.50;;;15.00;99.90;;;;;;5008878;28;20143;-87
2021/03/25 12:01:42;;;;;;;33.95;16.70;;;15.10;99.90;;;;;;5008038;28;20529;-87
2021/03/25 12:04:14;;;;;;;31.92;18.00;;;15.00;99.90;;;;;;4974805;28;20057;-88
2021/03/25 12:07:14;;;;;;;32.15;17.05;;;15.00;99.90;;;;;;4989771;28;20165;-89
2021/03/25 12:10:18;;;;;;;26.45;15.43;;;14.90;99.90;;;;;;4971635;28;20051;-89
2021/03/25 12:12:45;;;;;;;25.10;14.93;;;14.90;99.90;;;;;;4989322;28;20117;-89
2021/03/25 12:15:12;;;;;;;26.98;14.82;;;14.90;99.90;;;;;;4975781;28;20046;-89
2021/03/25 12:17:44;;;;;;;26.60;14.95;;;15.00;99.90;;;;;;5009164;28;20137;-89
2021/03/25 12:20:17;;;;;;;31.15;16.40;;;15.00;99.90;;;;;;4971844;28;20235;-89
2021/03/25 12:22:43;;;;;;;30.77;16.00;;;15.20;99.90;;;;;;4972303;28;20051;-88
2021/03/25 12:25:10;;;;;;;24.92;14.20;;;15.40;99.90;;;;;;4988239;28;20048;-88
2021/03/25 12:27:35;;;;;;;29.80;16.92;;;15.50;99.90;;;;;;4988403;28;20053;-89
2021/03/25 12:30:01;;;;;;;26.48;15.40;;;15.60;98.30;;;;;;4969939;28;20050;-88
2021/03/25 12:32:30;;;;;;;31.02;16.73;;;15.60;98.10;;;;;;4956260;28;20042;-89
2021/03/25 12:34:56;;;;;;;27.60;16.33;;;15.40;97.30;;;;;;4988305;28;20050;-88
2021/03/25 12:37:24;;;;;;;24.65;15.27;;;15.30;97.10;;;;;;4988308;28;20359;-88
2021/03/25 12:39:53;;;;;;;30.58;16.15;;;15.40;98.70;;;;;;4962434;28;20046;-87
2021/03/25 12:42:20;;;;;;;32.28;15.15;;;15.50;98.10;;;;;;5011757;28;20038;-88
2021/03/25 12:44:46;;;;;;;26.52;14.60;;;15.50;97.20;;;;;;5012448;28;20050;-89
2021/03/25 12:47:13;;;;;;;23.23;14.43;;;15.40;96.30;;;;;;4993978;28;20069;-87
2021/03/25 12:49:39;;;;;;;28.45;14.70;;;15.30;96.60;;;;;;4995161;28;20049;-88
2021/03/25 12:52:06;;;;;;;31.15;15.35;;;15.10;96.30;;;;;;5011407;28;20046;-88
2021/03/25 12:54:32;;;;;;;30.55;14.23;;;14.90;95.50;;;;;;5009880;28;20092;-89
2021/03/25 12:57:01;;;;;;;26.30;13.80;;;14.90;96.80;;;;;;5010437;28;20050;-88
2021/03/25 12:59:27;;;;;;;39.17;14.70;;;15.00;96.90;;;;;;4994600;28;20052;-88
2021/03/25 13:01:53;;;;;;;33.28;14.77;;;14.80;98.10;;;;;;4994291;28;20057;-87
2021/03/25 13:04:20;;;;;;;25.13;13.63;;;14.60;99.90;;;;;;5011718;28;20425;-88
2021/03/25 13:06:47;;;;;;;24.77;14.13;;;14.30;99.90;;;;;;4994327;28;20121;-88
2021/03/25 13:09:13;;;;;;;20.83;11.95;;;14.20;99.90;;;;;;5011084;28;20597;-90
2021/03/25 13:11:38;;;;;;;23.67;13.23;;;14.00;99.90;;;;;;5011527;28;20048;-91
2021/03/25 13:14:05;;;;;;;32.90;15.35;;;13.80;99.90;;;;;;4993658;28;20045;-88
2021/03/25 13:16:40;;;;;;;25.73;14.55;;;13.50;99.90;;;;;;4973733;28;20089;-90